Flight Track Log - Related Links

Times and Time Zones

All times are in EDT time to prevent confusion due to time zone crossing. See the SKQ225 flight status page for this flight to view local times or setup timezone preferences in your user account.

Time Position Orientation Groundspeed Altitude Reporting Facility
EDT Latitude Longitude Course Direction KTS MPH feet Rate Location/Type
Fri 02:17:36 AM 40.0692 -83.1003 226° Southwest 131 151 1,600  Level Indianapolis Center
Fri 02:18:42 AM 40.0414 -83.1381 226° Southwest 135 155 2,500 848 Climbing Indianapolis Center
Fri 02:19:15 AM 40.0289 -83.1594 233° Southwest 134 154 3,000 885 Climbing Indianapolis Center
Fri 02:19:43 AM 40.0156 -83.1783 227° Southwest 136 157 3,400 700 Climbing Indianapolis Center
Fri 02:20:15 AM 40.0069 -83.1892 224° Southwest 134 154 3,700 800 Climbing Indianapolis Center
Fri 02:20:43 AM 39.9900 -83.2136 228° Southwest 140 161 4,200 900 Climbing Indianapolis Center
Fri 02:21:15 AM 39.9800 -83.2278 227° Southwest 138 159 4,600 787 Climbing Indianapolis Center
Fri 02:21:44 AM 39.9622 -83.2539 228° Southwest 143 165 5,000 700 Climbing Indianapolis Center
Fri 02:22:15 AM 39.9522 -83.2675 226° Southwest 142 163 5,300 689 Climbing Indianapolis Center
Fri 02:22:45 AM 39.9342 -83.2939 228° Southwest 152 175 5,700 590 Climbing Indianapolis Center
Fri 02:23:16 AM 39.9233 -83.3094 228° Southwest 148 170 5,900 300 Climbing Indianapolis Center
Fri 02:23:45 AM 39.9039 -83.3367 227° Southwest 162 186 6,000 100 Climbing Indianapolis Center
Fri 02:24:16 AM 39.8917 -83.3544 228° Southwest 160 184 6,000  Level Indianapolis Center
Fri 02:24:46 AM 39.8711 -83.3842 228° Southwest 181 208 6,000  Level Indianapolis Center
Fri 02:25:16 AM 39.8575 -83.4042 228° Southwest 175 201 6,000  Level Indianapolis Center
Fri 02:25:46 AM 39.8383 -83.4347 231° Southwest 180 207 6,000  Level Indianapolis Center
Fri 02:26:16 AM 39.8231 -83.4544 225° Southwest 178 205 6,000  Level Indianapolis Center
Fri 02:26:47 AM 39.8056 -83.4822 231° Southwest 184 212 6,000  Level Indianapolis Center
Fri 02:27:16 AM 39.7881 -83.5039 224° Southwest 178 205 6,000  Level Indianapolis Center
Fri 02:27:48 AM 39.7683 -83.5319 228° Southwest 184 212 6,000  Level Indianapolis Center
Fri 02:28:16 AM 39.7542 -83.5531 229° Southwest 179 206 6,000  Level Indianapolis Center
Fri 02:28:48 AM 39.7353 -83.5822 230° Southwest 179 206 6,000  Level Indianapolis Center
Fri 02:29:16 AM 39.7206 -83.6011 225° Southwest 178 205 6,000  Level Indianapolis Center
Fri 02:29:49 AM 39.7028 -83.6269 228° Southwest 178 205 6,000  Level Indianapolis Center
Fri 02:30:17 AM 39.6864 -83.6497 227° Southwest 180 207 6,000  Level Indianapolis Center
Fri 02:30:49 AM 39.6678 -83.6742 225° Southwest 179 206 6,000  Level Indianapolis Center
Fri 02:31:17 AM 39.6581 -83.6908 233° Southwest 180 207 6,000  Level Indianapolis Center
Fri 02:31:56 AM 39.6325 -83.7267 227° Southwest 177 204 6,000  Level Indianapolis Center
Fri 02:32:17 AM 39.6256 -83.7367 228° Southwest 176 203 6,000  Level Indianapolis Center
Fri 02:32:57 AM 39.5972 -83.7764 227° Southwest 178 205 6,000  Level Indianapolis Center
Fri 02:33:17 AM 39.5917 -83.7847 229° Southwest 177 204 6,000  Level Indianapolis Center
Fri 02:33:57 AM 39.5644 -83.8236 228° Southwest 177 204 6,000  Level Indianapolis Center
Fri 02:34:17 AM 39.5578 -83.8331 228° Southwest 178 205 6,000  Level Indianapolis Center
Fri 02:34:58 AM 39.5314 -83.8736 230° Southwest 179 206 6,000  Level Indianapolis Center
Fri 02:35:17 AM 39.5244 -83.8814 221° Southwest 179 206 6,000  Level Indianapolis Center
Fri 02:36:04 AM 39.4939 -83.9231 226° Southwest 175 201 6,000  Level Indianapolis Center
Fri 02:37:05 AM 39.4611 -83.9700 228° Southwest 178 205 6,000  Level Indianapolis Center
Fri 02:38:42 AM 39.4000 -84.0500 225° Southwest 178 205 6,000  Level Cincinnati TRACON
Fri 02:39:18 AM 39.3889 -84.0722 237° Southwest 178 205 6,000  Level Indianapolis Center
Fri 02:40:18 AM 39.3550 -84.1194 227° Southwest 178 205 6,000  Level Indianapolis Center
Fri 02:41:18 AM 39.3211 -84.1669 227° Southwest 178 205 6,000  Level Indianapolis Center
Fri 02:42:18 AM 39.2878 -84.2153 228° Southwest 179 206 6,000  Level Indianapolis Center
Fri 02:43:18 AM 39.2517 -84.2639 226° Southwest 184 212 6,000  Level Indianapolis Center
Fri 02:45:19 AM 39.1828 -84.3614 228° Southwest 184 212 6,000  Level Indianapolis Center
Fri 02:46:19 AM 39.1486 -84.4081 227° Southwest 180 207 6,000  Level Indianapolis Center
Fri 02:47:30 AM 39.1000 -84.4667 223° Southwest 183 211 6,000  Level Cincinnati TRACON
Fri 02:48:36 AM 39.0667 -84.5167 229° Southwest 179 206 6,000  Level Cincinnati TRACON
Fri 02:49:30 AM 39.0333 -84.5667 229° Southwest 177 204 6,000  Level Cincinnati TRACON
Fri 02:50:30 AM 39.0000 -84.6000 218° Southwest 178 205 6,000  Level Cincinnati TRACON
Fri 02:51:30 AM 38.9667 -84.6500 229° Southwest 177 204 6,000  Level Cincinnati TRACON
Fri 02:52:30 AM 38.9333 -84.7000 229° Southwest 179 206 6,000  Level Cincinnati TRACON
Fri 02:53:30 AM 38.9000 -84.7500 229° Southwest 182 209 6,000  Level Cincinnati TRACON
Fri 02:54:30 AM 38.8667 -84.7833 218° Southwest 179 206 6,000  Level Cincinnati TRACON
Fri 02:55:20 AM 38.8475 -84.8256 240° Southwest 179 206 6,000  Level Indianapolis Center
Fri 02:56:20 AM 38.8131 -84.8722 227° Southwest 179 206 6,000  Level Indianapolis Center
Fri 02:57:20 AM 38.7714 -84.9289 227° Southwest 183 211 6,000  Level Indianapolis Center
Fri 02:58:21 AM 38.7372 -84.9750 226° Southwest 180 207 6,000  Level Indianapolis Center
Fri 02:59:21 AM 38.7044 -85.0222 228° Southwest 178 205 6,000  Level Indianapolis Center
Fri 03:00:21 AM 38.6700 -85.0681 226° Southwest 178 205 6,000  Level Indianapolis Center
Fri 03:01:21 AM 38.6353 -85.1156 227° Southwest 182 209 6,000  Level Indianapolis Center
Fri 03:02:21 AM 38.6053 -85.1553 226° Southwest 179 206 6,000  Level Indianapolis Center
Fri 03:03:21 AM 38.5719 -85.2011 227° Southwest 177 204 6,000 -150 Level Indianapolis Center
Fri 03:04:21 AM 38.5353 -85.2528 228° Southwest 184 212 5,700 -397 Descending Indianapolis Center
Fri 03:05:22 AM 38.5114 -85.3142 244° Southwest 192 221 5,200 -595 Descending Indianapolis Center
Fri 03:06:22 AM 38.4808 -85.3725 236° Southwest 194 223 4,500 -600 Descending Indianapolis Center
Fri 03:07:22 AM 38.4517 -85.4306 237° Southwest 194 223 4,000 -350 Descending Indianapolis Center
Fri 03:08:22 AM 38.4219 -85.4811 233° Southwest 186 214 3,800 -300 Descending Indianapolis Center
Fri 03:09:22 AM 38.3883 -85.5244 225° Southwest 176 203 3,400 -450 Descending Indianapolis Center
Fri 03:12:22 AM 38.2833 -85.6500 223° Southwest 159 183 2,000 -400 Descending Louisville TRACON
Fri 03:14:00 AM 38.2188 -85.7011 230° Southwest  Level Estimated
Fri 03:14:52 AM 38.2167 -85.7333 230° Southwest 117 135 1,200  Level Louisville TRACON
Fri 03:16:00 AM 38.1741 -85.7365 230° Southwest  Level Estimated
Fri 03:23:00 AM 38.1741 -85.7365 230° Southwest  Level Estimated

Login

Don't have an account? Register now (free) for customized features, flight alerts, and more!